Terminal Aerodrome Forecast
Issued by NWS

Home | Current Version | Previous Version | Text Only | Print | Product List | Glossary On
Versions: 1 2 3 4 5 6 7 8 9 10 11 12 13 14 15 16 17 18 19 20 21 22 23 24
000
FTUS43 KDMX 281720
TAFFOD
TAF
KFOD 281720Z 2818/2918 10005KT P6SM BKN019
     FM281900 08007KT P6SM OVC025
     FM291000 09007KT P6SM SCT009 OVC020
     FM291300 09011KT P6SM BKN010
     FM291600 08013KT 3SM -RA OVC010=

USA.gov is the U.S. government's official web portal to all federal, state and local government web resources and services.